| time (UTC) | temp F | wind direction | speed MPH | gust MPH | rain 1hr in | rain 24hr in | rain mn in | humidity % | barometer mb |
| 20260508003603 | 93 | 279 | 4.0 | 11.0 | 0.00 | 0.00 | 0.00 | 10 | 1009.3 |
| 20260508002704 | 93 | 245 | 5.0 | 15.0 | 0.00 | 0.00 | 0.00 | 10 | 1009.6 |
| 20260508001803 | 94 | 265 | 6.0 | 15.0 | 0.00 | 0.00 | 0.00 | 10 | 1009.4 |
| 20260508000903 | 94 | 230 | 3.0 | 11.0 | 0.00 | 0.00 | 0.00 | 10 | 1009.3 |
| 20260508000004 | 94 | 239 | 2.0 | 9.0 | 0.00 | 0.00 | 0.00 | 10 | 1009.7 |
| 20260507235403 | 94 | 219 | 3.0 | 7.0 | 0.00 | 0.00 | 0.00 | 11 | 1009.4 |
| 20260507234505 | 94 | 260 | 4.0 | 11.0 | 0.00 | 0.00 | 0.00 | 11 | 1009.5 |
| 20260507233624 | 94 | 257 | 4.0 | 11.0 | 0.00 | 0.00 | 0.00 | 10 | 1009.5 |
| 20260507232703 | 94 | 275 | 5.0 | 10.0 | 0.00 | 0.00 | 0.00 | 11 | 1009.7 |
| 20260507231803 | 94 | 221 | 4.0 | 10.0 | 0.00 | 0.00 | 0.00 | 11 | 1009.6 |
| 20260507230903 | 94 | 250 | 6.0 | 15.0 | 0.00 | 0.00 | 0.00 | 11 | 1009.7 |
| 20260507230003 | 93 | 292 | 5.0 | 11.0 | 0.00 | 0.00 | 0.00 | 11 | 1009.5 |
| 20260507225424 | 93 | 300 | 4.0 | 13.0 | 0.00 | 0.00 | 0.00 | 11 | 1009.6 |
| 20260507224504 | 94 | 266 | 5.0 | 11.0 | 0.00 | 0.00 | 0.00 | 11 | 1009.8 |
| 20260507223604 | 94 | 274 | 2.0 | 6.0 | 0.00 | 0.00 | 0.00 | 12 | 1009.9 |
| 20260507222724 | 94 | 248 | 4.0 | 9.0 | 0.00 | 0.00 | 0.00 | 11 | 1010.1 |
| 20260507221804 | 93 | 241 | 4.0 | 9.0 | 0.00 | 0.00 | 0.00 | 12 | 1009.9 |
| 20260507220903 | 93 | 253 | 4.0 | 9.0 | 0.00 | 0.00 | 0.00 | 11 | 1010.2 |
| 20260507220004 | 94 | 276 | 4.0 | 9.0 | 0.00 | 0.00 | 0.00 | 11 | 1010.3 |
| 20260507215403 | 94 | 255 | 2.0 | 8.0 | 0.00 | 0.00 | 0.00 | 10 | 1010.2 |
| 20260507214503 | 95 | 143 | 2.0 | 4.0 | 0.00 | 0.00 | 0.00 | 10 | 1010.4 |
| 20260507213605 | 94 | 253 | 3.0 | 9.0 | 0.00 | 0.00 | 0.00 | 11 | 1010.6 |
| 20260507212724 | 95 | 73 | 1.0 | 4.0 | 0.00 | 0.00 | 0.00 | 11 | 1010.6 |
| 20260507211803 | 95 | 141 | 2.0 | 7.0 | 0.00 | 0.00 | 0.00 | 13 | 1010.8 |
| 20260507210925 | 94 | 106 | 2.0 | 6.0 | 0.00 | 0.00 | 0.00 | 13 | 1010.9 |
| 20260507210003 | 92 | 47 | 1.0 | 7.0 | 0.00 | 0.00 | 0.00 | 11 | 1011.1 |
| 20260507205403 | 92 | 12 | 3.0 | 10.0 | 0.00 | 0.00 | 0.00 | 11 | 1011.1 |
| 20260507204505 | 93 | 346 | 3.0 | 9.0 | 0.00 | 0.00 | 0.00 | 11 | 1011.2 |
| 20260507203603 | 94 | 92 | 1.0 | 4.0 | 0.00 | 0.00 | 0.00 | 12 | 1011.2 |
| 20260507202704 | 93 | 209 | 3.0 | 8.0 | 0.00 | 0.00 | 0.00 | 12 | 1011.3 |
| 20260507201824 | 91 | 248 | 3.0 | 7.0 | 0.00 | 0.00 | 0.00 | 13 | 1011.5 |
| 20260507200903 | 90 | 250 | 2.0 | 7.0 | 0.00 | 0.00 | 0.00 | 14 | 1011.7 |
| 20260507200003 | 90 | 4 | 3.0 | 11.0 | 0.00 | 0.00 | 0.00 | 13 | 1011.8 |
| 20260507195424 | 90 | 335 | 2.0 | 11.0 | 0.00 | 0.00 | 0.00 | 14 | 1011.9 |
| 20260507194503 | 90 | 310 | 3.0 | 8.0 | 0.00 | 0.00 | 0.00 | 16 | 1011.9 |
| 20260507193604 | 90 | 345 | 2.0 | 8.0 | 0.00 | 0.00 | 0.00 | 15 | 1012.1 |
| 20260507192703 | 89 | 24 | 3.0 | 8.0 | 0.00 | 0.00 | 0.00 | 16 | 1012.3 |
| 20260507191803 | 89 | 354 | 3.0 | 9.0 | 0.00 | 0.00 | 0.00 | 15 | 1012.5 |
| 20260507190903 | 89 | 21 | 3.0 | 7.0 | 0.00 | 0.00 | 0.00 | 16 | 1012.5 |
| 20260507190024 | 89 | 214 | 2.0 | 4.0 | 0.00 | 0.00 | 0.00 | 15 | 1012.6 |
| 20260507185403 | 88 | 56 | 2.0 | 6.0 | 0.00 | 0.00 | 0.00 | 19 | 1012.8 |
| 20260507184504 | 87 | 258 | 1.0 | 3.0 | 0.00 | 0.00 | 0.00 | 17 | 1012.9 |
| 20260507183604 | 87 | 317 | 2.0 | 8.0 | 0.00 | 0.00 | 0.00 | 17 | 1013.1 |
| 20260507182724 | 86 | 91 | 2.0 | 6.0 | 0.00 | 0.00 | 0.00 | 19 | 1013.1 |
| 20260507181803 | 86 | 312 | 2.0 | 7.0 | 0.00 | 0.00 | 0.00 | 18 | 1013.4 |
| 20260507180903 | 85 | 341 | 3.0 | 8.0 | 0.00 | 0.00 | 0.00 | 19 | 1013.4 |
| 20260507180003 | 85 | 332 | 3.0 | 8.0 | 0.00 | 0.00 | 0.00 | 18 | 1013.4 |
| 20260507175403 | 85 | 275 | 4.0 | 9.0 | 0.00 | 0.00 | 0.00 | 20 | 1013.4 |
| 20260507173603 | 85 | 54 | 1.0 | 7.0 | 0.00 | 0.00 | 0.00 | 19 | 1013.6 |
| 20260507172705 | 86 | 94 | 1.0 | 3.0 | 0.00 | 0.00 | 0.00 | 21 | 1013.5 |
| 20260507171805 | 84 | 86 | 1.0 | 6.0 | 0.00 | 0.00 | 0.00 | 20 | 1013.8 |
| 20260507170906 | 83 | 176 | 1.0 | 6.0 | 0.00 | 0.00 | 0.00 | 20 | 1013.7 |
| 20260507170003 | 82 | 13 | 2.0 | 6.0 | 0.00 | 0.00 | 0.00 | 20 | 1013.9 |
| 20260507165403 | 82 | 322 | 2.0 | 4.0 | 0.00 | 0.00 | 0.00 | 19 | 1013.8 |
| 20260507164503 | 83 | 275 | 1.0 | 4.0 | 0.00 | 0.00 | 0.00 | 19 | 1013.8 |
| 20260507163603 | 83 | 111 | 0.0 | 2.0 | 0.00 | 0.00 | 0.00 | 21 | 1013.9 |
| 20260507162703 | 82 | 128 | 1.0 | 3.0 | 0.00 | 0.00 | 0.00 | 21 | 1014.1 |
| 20260507161803 | 80 | 101 | 1.0 | 4.0 | 0.00 | 0.00 | 0.00 | 22 | 1014.2 |
| 20260507160903 | 79 | 82 | 0.0 | 2.0 | 0.00 | 0.00 | 0.00 | 20 | 1014.2 |
| 20260507160005 | 79 | 119 | 0.0 | 3.0 | 0.00 | 0.00 | 0.00 | 21 | 1014.2 |
| 20260507155425 | 78 | 113 | 1.0 | 3.0 | 0.00 | 0.00 | 0.00 | 22 | 1014.2 |
| 20260507154504 | 78 | 97 | 0.0 | 2.0 | 0.00 | 0.00 | 0.00 | 22 | 1014.4 |
| 20260507153624 | 78 | 213 | 1.0 | 3.0 | 0.00 | 0.00 | 0.00 | 23 | 1014.2 |
| 20260507152703 | 77 | 222 | 1.0 | 3.0 | 0.00 | 0.00 | 0.00 | 21 | 1014.2 |
| 20260507151804 | 76 | 223 | 2.0 | 6.0 | 0.00 | 0.00 | 0.00 | 22 | 1014.4 |
| 20260507150924 | 74 | 206 | 2.0 | 3.0 | 0.00 | 0.00 | 0.00 | 22 | 1014.2 |
| 20260507150025 | 73 | 171 | 1.0 | 3.0 | 0.00 | 0.00 | 0.00 | 24 | 1014.5 |
| 20260507145403 | 72 | 131 | 0.0 | 3.0 | 0.00 | 0.00 | 0.00 | 25 | 1014.3 |
| 20260507144503 | 71 | 0 | 0.0 | 1.0 | 0.00 | 0.00 | 0.00 | 24 | 1014.4 |
| 20260507143603 | 69 | 208 | 0.0 | 2.0 | 0.00 | 0.00 | 0.00 | 26 | 1014.3 |
| 20260507142703 | 68 | 213 | 0.0 | 2.0 | 0.00 | 0.00 | 0.00 | 26 | 1014.5 |
| 20260507141824 | 67 | 0 | 0.0 | 0.0 | 0.00 | 0.00 | 0.00 | 29 | 1014.3 |
| 20260507140924 | 66 | 83 | 0.0 | 1.0 | 0.00 | 0.00 | 0.00 | 30 | 1014.3 |
| 20260507140025 | 64 | 89 | 1.0 | 3.0 | 0.00 | 0.00 | 0.00 | 30 | 1014.3 |
| 20260507135403 | 63 | 90 | 1.0 | 3.0 | 0.00 | 0.00 | 0.00 | 31 | 1014.3 |
| 20260507134504 | 62 | 98 | 0.0 | 2.0 | 0.00 | 0.00 | 0.00 | 32 | 1014.2 |
| 20260507133604 | 61 | 94 | 1.0 | 3.0 | 0.00 | 0.00 | 0.00 | 32 | 1014.1 |
| 20260507132704 | 60 | 0 | 0.0 | 0.0 | 0.00 | 0.00 | 0.00 | 33 | 1014.0 |
| 20260507131803 | 59 | 0 | 0.0 | 0.0 | 0.00 | 0.00 | 0.00 | 30 | 1013.9 |
| 20260507130904 | 58 | 0 | 0.0 | 0.0 | 0.00 | 0.00 | 0.00 | 28 | 1014.1 |
| 20260507130004 | 58 | 0 | 0.0 | 0.0 | 0.00 | 0.00 | 0.00 | 29 | 1013.6 |
| 20260507125404 | 58 | 275 | 0.0 | 1.0 | 0.00 | 0.00 | 0.00 | 29 | 1013.8 |
| 20260507124503 | 57 | 275 | 1.0 | 2.0 | 0.00 | 0.00 | 0.00 | 29 | 1013.8 |
| 20260507123604 | 58 | 275 | 0.0 | 1.0 | 0.00 | 0.00 | 0.00 | 28 | 1013.7 |
| 20260507122705 | 58 | 0 | 0.0 | 0.0 | 0.00 | 0.00 | 0.00 | 32 | 1013.7 |
| 20260507121824 | 58 | 0 | 0.0 | 0.0 | 0.00 | 0.00 | 0.00 | 31 | 1013.7 |
| 20260507120903 | 58 | 0 | 0.0 | 1.0 | 0.00 | 0.00 | 0.00 | 30 | 1013.6 |
| 20260507120004 | 57 | 275 | 0.0 | 1.0 | 0.00 | 0.00 | 0.00 | 27 | 1013.5 |
| 20260507115403 | 58 | 275 | 0.0 | 1.0 | 0.00 | 0.00 | 0.00 | 26 | 1013.8 |
| 20260507114503 | 59 | 282 | 0.0 | 1.0 | 0.00 | 0.00 | 0.00 | 28 | 1013.5 |
| 20260507113603 | 58 | 283 | 0.0 | 2.0 | 0.00 | 0.00 | 0.00 | 27 | 1013.6 |
| 20260507112703 | 58 | 282 | 0.0 | 2.0 | 0.00 | 0.00 | 0.00 | 26 | 1013.8 |
| 20260507111803 | 59 | 0 | 0.0 | 1.0 | 0.00 | 0.00 | 0.00 | 25 | 1013.7 |
| 20260507110903 | 60 | 0 | 0.0 | 1.0 | 0.00 | 0.00 | 0.00 | 25 | 1013.7 |
| 20260507110003 | 62 | 0 | 0.0 | 1.0 | 0.00 | 0.00 | 0.00 | 26 | 1013.9 |
| 20260507105403 | 62 | 0 | 0.0 | 1.0 | 0.00 | 0.00 | 0.00 | 27 | 1013.8 |
| 20260507104504 | 63 | 160 | 0.0 | 1.0 | 0.00 | 0.00 | 0.00 | 28 | 1013.7 |
| 20260507103604 | 64 | 0 | 0.0 | 1.0 | 0.00 | 0.00 | 0.00 | 28 | 1013.9 |
| 20260507102703 | 64 | 161 | 0.0 | 2.0 | 0.00 | 0.00 | 0.00 | 29 | 1013.9 |
| 20260507101803 | 64 | 162 | 0.0 | 2.0 | 0.00 | 0.00 | 0.00 | 29 | 1014.0 |
| 20260507100904 | 64 | 135 | 0.0 | 1.0 | 0.00 | 0.00 | 0.00 | 29 | 1014.1 |
| 20260507100005 | 64 | 102 | 0.0 | 1.0 | 0.00 | 0.00 | 0.00 | 29 | 1014.0 |
| 20260507095404 | 64 | 92 | 0.0 | 2.0 | 0.00 | 0.00 | 0.00 | 28 | 1013.9 |
| 20260507094504 | 65 | 79 | 1.0 | 2.0 | 0.00 | 0.00 | 0.00 | 29 | 1014.1 |
| 20260507093603 | 65 | 49 | 1.0 | 2.0 | 0.00 | 0.00 | 0.00 | 29 | 1014.1 |
| 20260507092703 | 65 | 8 | 0.0 | 1.0 | 0.00 | 0.00 | 0.00 | 28 | 1013.9 |
| 20260507091803 | 65 | 1 | 0.0 | 1.0 | 0.00 | 0.00 | 0.00 | 28 | 1014.0 |
| 20260507090903 | 65 | 360 | 0.0 | 1.0 | 0.00 | 0.00 | 0.00 | 29 | 1014.1 |
| 20260507090004 | 65 | 0 | 0.0 | 0.0 | 0.00 | 0.00 | 0.00 | 29 | 1014.2 |
| 20260507085425 | 65 | 0 | 0.0 | 0.0 | 0.00 | 0.00 | 0.00 | 28 | 1014.3 |
| 20260507084503 | 65 | 0 | 0.0 | 0.0 | 0.00 | 0.00 | 0.00 | 29 | 1014.2 |
| 20260507083604 | 65 | 0 | 0.0 | 0.0 | 0.00 | 0.00 | 0.00 | 29 | 1014.2 |
| 20260507082703 | 65 | 0 | 0.0 | 0.0 | 0.00 | 0.00 | 0.00 | 29 | 1014.4 |
| 20260507081804 | 65 | 0 | 0.0 | 0.0 | 0.00 | 0.00 | 0.00 | 28 | 1014.3 |
| 20260507080924 | 65 | 0 | 0.0 | 0.0 | 0.00 | 0.00 | 0.00 | 27 | 1014.3 |
| 20260507080004 | 64 | 0 | 0.0 | 0.0 | 0.00 | 0.00 | 0.00 | 26 | 1014.2 |
| 20260507075403 | 64 | 0 | 0.0 | 0.0 | 0.00 | 0.00 | 0.00 | 24 | 1014.5 |
| 20260507074503 | 66 | 190 | 0.0 | 2.0 | 0.00 | 0.00 | 0.00 | 25 | 1014.5 |
| 20260507073624 | 66 | 190 | 0.0 | 2.0 | 0.00 | 0.00 | 0.00 | 26 | 1014.5 |
| 20260507072703 | 67 | 0 | 0.0 | 0.0 | 0.00 | 0.00 | 0.00 | 27 | 1014.7 |
| 20260507071803 | 66 | 168 | 0.0 | 1.0 | 0.00 | 0.00 | 0.00 | 26 | 1014.3 |
| 20260507070903 | 66 | 0 | 0.0 | 0.0 | 0.00 | 0.00 | 0.00 | 26 | 1014.4 |
| 20260507070008 | 66 | 0 | 0.0 | 0.0 | 0.00 | 0.00 | 0.00 | 24 | 1014.6 |
| 20260507065424 | 66 | 0 | 0.0 | 0.0 | 0.00 | 0.00 | 0.00 | 23 | 1014.4 |
| 20260507064503 | 67 | 0 | 0.0 | 0.0 | 0.00 | 0.00 | 0.00 | 23 | 1014.4 |
| 20260507063603 | 68 | 0 | 0.0 | 0.0 | 0.00 | 0.00 | 0.00 | 24 | 1014.5 |
| 20260507062703 | 68 | 0 | 0.0 | 0.0 | 0.00 | 0.00 | 0.00 | 24 | 1014.5 |
| 20260507061803 | 68 | 152 | 0.0 | 1.0 | 0.00 | 0.00 | 0.00 | 26 | 1014.5 |
| 20260507060904 | 69 | 151 | 0.0 | 2.0 | 0.00 | 0.00 | 0.00 | 26 | 1014.5 |
| 20260507060004 | 69 | 193 | 1.0 | 2.0 | 0.00 | 0.00 | 0.00 | 26 | 1014.5 |
| 20260507055403 | 69 | 215 | 0.0 | 1.0 | 0.00 | 0.00 | 0.00 | 24 | 1014.4 |
| 20260507054504 | 70 | 0 | 0.0 | 0.0 | 0.00 | 0.00 | 0.00 | 22 | 1014.4 |
| 20260507053603 | 70 | 219 | 0.0 | 2.0 | 0.00 | 0.00 | 0.00 | 24 | 1014.5 |
| 20260507052703 | 70 | 224 | 0.0 | 2.0 | 0.00 | 0.00 | 0.00 | 24 | 1014.5 |
| 20260507051803 | 70 | 0 | 0.0 | 0.0 | 0.00 | 0.00 | 0.00 | 23 | 1014.5 |
| 20260507050924 | 70 | 0 | 0.0 | 0.0 | 0.00 | 0.00 | 0.00 | 23 | 1014.3 |
| 20260507050003 | 71 | 0 | 0.0 | 0.0 | 0.00 | 0.00 | 0.00 | 22 | 1014.2 |
| 20260507045403 | 71 | 0 | 0.0 | 0.0 | 0.00 | 0.00 | 0.00 | 22 | 1014.1 |
| 20260507044503 | 72 | 0 | 0.0 | 0.0 | 0.00 | 0.00 | 0.00 | 22 | 1014.2 |
| 20260507043603 | 73 | 0 | 0.0 | 0.0 | 0.00 | 0.00 | 0.00 | 23 | 1014.2 |
| 20260507042703 | 73 | 0 | 0.0 | 0.0 | 0.00 | 0.00 | 0.00 | 23 | 1014.2 |
| 20260507041803 | 74 | 0 | 0.0 | 0.0 | 0.00 | 0.00 | 0.00 | 22 | 1014.1 |
| 20260507040903 | 74 | 0 | 0.0 | 0.0 | 0.00 | 0.00 | 0.00 | 23 | 1013.8 |
| 20260507040003 | 74 | 0 | 0.0 | 0.0 | 0.00 | 0.00 | 0.00 | 22 | 1013.8 |
| 20260507035403 | 75 | 0 | 0.0 | 0.0 | 0.00 | 0.00 | 0.00 | 22 | 1013.6 |
| 20260507034503 | 75 | 0 | 0.0 | 0.0 | 0.00 | 0.00 | 0.00 | 21 | 1013.7 |
| 20260507033624 | 76 | 255 | 0.0 | 1.0 | 0.00 | 0.00 | 0.00 | 21 | 1013.6 |
| 20260507032703 | 76 | 256 | 1.0 | 2.0 | 0.00 | 0.00 | 0.00 | 21 | 1013.5 |
| 20260507031803 | 76 | 247 | 1.0 | 2.0 | 0.00 | 0.00 | 0.00 | 20 | 1013.5 |
| 20260507030903 | 77 | 0 | 0.0 | 0.0 | 0.00 | 0.00 | 0.00 | 20 | 1013.3 |
| 20260507030004 | 78 | 0 | 0.0 | 0.0 | 0.00 | 0.00 | 0.00 | 19 | 1013.4 |
| 20260507025424 | 78 | 220 | 0.0 | 2.0 | 0.00 | 0.00 | 0.00 | 19 | 1013.3 |
| 20260507024524 | 78 | 237 | 1.0 | 3.0 | 0.00 | 0.00 | 0.00 | 19 | 1013.3 |
| 20260507023603 | 79 | 245 | 1.0 | 2.0 | 0.00 | 0.00 | 0.00 | 19 | 1013.1 |
| 20260507022703 | 79 | 254 | 1.0 | 3.0 | 0.00 | 0.00 | 0.00 | 18 | 1013.1 |
| 20260507021804 | 80 | 263 | 2.0 | 3.0 | 0.00 | 0.00 | 0.00 | 18 | 1012.9 |
| 20260507020903 | 81 | 265 | 2.0 | 4.0 | 0.00 | 0.00 | 0.00 | 17 | 1012.8 |
| 20260507020024 | 81 | 254 | 2.0 | 6.0 | 0.00 | 0.00 | 0.00 | 18 | 1012.8 |
| 20260507015404 | 82 | 265 | 3.0 | 7.0 | 0.00 | 0.00 | 0.00 | 17 | 1012.7 |
| 20260507014503 | 82 | 261 | 4.0 | 8.0 | 0.00 | 0.00 | 0.00 | 17 | 1012.8 |
| 20260507013603 | 83 | 278 | 2.0 | 7.0 | 0.00 | 0.00 | 0.00 | 17 | 1012.7 |
| 20260507012724 | 83 | 243 | 2.0 | 7.0 | 0.00 | 0.00 | 0.00 | 16 | 1012.7 |
| 20260507011803 | 84 | 232 | 3.0 | 7.0 | 0.00 | 0.00 | 0.00 | 17 | 1012.9 |
| 20260507010903 | 83 | 147 | 1.0 | 4.0 | 0.00 | 0.00 | 0.00 | 17 | 1012.7 |
| 20260507010005 | 83 | 84 | 1.0 | 6.0 | 0.00 | 0.00 | 0.00 | 17 | 1012.9 |
| 20260507005404 | 83 | 216 | 3.0 | 8.0 | 0.00 | 0.00 | 0.00 | 17 | 1012.9 |
| 20260507004503 | 84 | 282 | 2.0 | 8.0 | 0.00 | 0.00 | 0.00 | 17 | 1012.9 |